Lawndale, North Carolina
Current Conditions -  °F | °C
As of 1:15 AM on Saturday 25 Oct 2014 (Local Time) from KEHO Reporting Station
Haze Haze  
Wind Chill: 42°   Ceiling: Unl
Heat Index: 42°   Visibility: 3mi
Dew Point: 41°   Wind: 3mph
Humidity: 97%   Direction: 300°WNW
Pressure: 30.02"   Gusts: NA
Location:  35.41°N, 81.56°W
Report Text: KEHO 250515Z AUTO 30003KT 3SM BR CLR 05/05 A3002 RMK AO2 T00530048
Loading
Personal Weather Stations






























Interactive Weather Map
Tropical Storm Tracking
New forecast layout! Learn more

10-Day Weather Forecast

Advertisements
Track Severe Weather on mobile